Time;durP1;ratioP1;P1;durP2;ratioP2;P2;SDS_P1;SDS_P2;PMS_P1;PMS_P2;Temp;Humidity;BMP_temperature;BMP_pressure;BME280_temperature;BME280_humidity;BME280_pressure;Samples;Min_cycle;Max_cycle;Signal;HPM_P1;HPM_P2
2022/08/12 04:31:13;;;;;;;;;9.00;9.00;;;;;24.45;34.16;101289.69;5564763;23;45460;-68
2022/08/12 04:33:41;;;;;;;;;11.00;9.00;;;;;24.42;34.32;101279.97;5011233;28;45466;-67
2022/08/12 04:36:08;;;;;;;;;11.00;10.67;;;;;24.41;34.17;101280.16;5015087;28;47130;-69
2022/08/12 04:38:33;;;;;;;;;8.67;8.67;;;;;24.36;34.48;101290.63;5014106;28;45453;-68
2022/08/12 04:40:59;;;;;;;;;9.67;9.67;;;;;24.29;34.58;101282.25;5015673;28;66604;-70
2022/08/12 04:43:24;;;;;;;;;6.00;6.00;;;;;24.25;34.76;101281.69;5015458;28;54012;-69
2022/08/12 04:45:51;;;;;;;;;10.00;10.00;;;;;24.21;34.81;101287.56;5020850;28;73285;-70
2022/08/12 04:48:17;;;;;;;;;13.00;13.00;;;;;24.18;34.78;101285.19;5007746;28;45431;-70
2022/08/12 04:50:43;;;;;;;;;10.00;10.00;;;;;24.16;34.73;101284.47;5003156;28;45434;-69
2022/08/12 04:53:08;;;;;;;;;10.33;9.00;;;;;24.15;35.30;101286.34;5009459;28;45467;-69
2022/08/12 04:55:36;;;;;;;;;11.33;11.33;;;;;24.09;34.98;101293.25;5017706;28;45908;-70
2022/08/12 04:58:01;;;;;;;;;10.00;10.00;;;;;24.08;34.76;101288.81;5013523;28;45360;-69
2022/08/12 05:00:27;;;;;;;;;10.33;10.33;;;;;24.13;35.18;101287.50;5016178;28;45257;-72
2022/08/12 05:02:52;;;;;;;;;11.00;11.00;;;;;24.13;35.18;101287.50;5016549;28;45537;-71
2022/08/12 05:05:21;;;;;;;;;11.00;11.00;;;;;24.13;35.36;101295.66;5017190;28;54707;-70
2022/08/12 05:07:47;;;;;;;;;9.00;9.00;;;;;24.11;35.18;101293.09;5014304;28;45382;-69
2022/08/12 05:10:12;;;;;;;;;10.67;9.00;;;;;24.09;35.36;101295.09;5016023;28;45380;-70
2022/08/12 05:12:43;;;;;;;;;9.33;9.33;;;;;24.06;35.20;101293.56;5015897;28;45502;-69
2022/08/12 05:15:10;;;;;;;;;12.00;9.00;;;;;24.02;35.34;101299.47;5016456;28;46362;-70
2022/08/12 05:17:35;;;;;;;;;10.00;10.00;;;;;23.97;35.90;101296.34;5016667;28;45418;-70
2022/08/12 05:20:00;;;;;;;;;12.33;11.33;;;;;23.93;35.84;101296.63;5016623;28;65605;-70
2022/08/12 05:22:26;;;;;;;;;10.33;9.00;;;;;23.89;36.14;101295.19;5012807;28;46691;-70
2022/08/12 05:24:51;;;;;;;;;10.00;10.00;;;;;23.89;36.23;101303.34;5021213;28;45427;-70
2022/08/12 05:27:17;;;;;;;;;10.00;10.00;;;;;23.92;35.26;101303.09;5021060;28;52732;-70
2022/08/12 05:29:45;;;;;;;;;12.33;11.33;;;;;23.98;35.38;101308.94;5019688;28;45926;-69
2022/08/12 05:32:10;;;;;;;;;8.00;8.00;;;;;24.00;35.35;101318.63;5014561;28;45570;-70
2022/08/12 05:34:36;;;;;;;;;11.00;11.00;;;;;24.02;35.14;101311.16;5020102;28;46097;-69
2022/08/12 05:37:01;;;;;;;;;11.33;11.33;;;;;24.07;35.50;101322.44;5021201;28;45342;-70
2022/08/12 05:39:26;;;;;;;;;11.00;10.00;;;;;24.11;35.45;101309.41;5019470;28;62690;-70
2022/08/12 05:41:52;;;;;;;;;8.67;8.67;;;;;24.15;35.16;101301.81;5017937;28;54849;-71
2022/08/12 05:44:18;;;;;;;;;9.00;9.00;;;;;24.15;35.22;101302.66;5016747;28;46203;-71
2022/08/12 05:46:44;;;;;;;;;10.00;10.00;;;;;24.17;35.35;101307.91;5012859;28;45490;-70
2022/08/12 05:49:09;;;;;;;;;11.67;11.67;;;;;24.17;35.38;101308.78;5020712;28;45272;-69
2022/08/12 05:51:36;;;;;;;;;11.00;11.00;;;;;24.13;35.49;101312.81;5014254;28;45368;-68
2022/08/12 05:54:02;;;;;;;;;8.67;7.67;;;;;24.15;35.57;101312.69;5020073;28;46319;-68
2022/08/12 05:56:33;;;;;;;;;10.00;10.00;;;;;24.15;35.86;101316.22;5018496;28;45352;-68
2022/08/12 05:59:00;;;;;;;;;10.33;9.00;;;;;24.13;36.08;101318.25;5012629;28;45293;-68
2022/08/12 06:01:27;;;;;;;;;10.67;10.67;;;;;24.15;35.67;101321.66;5017162;28;45500;-69
2022/08/12 06:03:53;;;;;;;;;9.33;9.33;;;;;24.18;35.48;101323.22;5020266;28;45630;-69
2022/08/12 06:06:19;;;;;;;;;10.00;9.00;;;;;24.18;35.73;101315.91;5020023;28;45319;-68
2022/08/12 06:08:52;;;;;;;;;10.33;10.33;;;;;24.24;35.80;101315.31;5019694;28;45463;-69
2022/08/12 06:11:19;;;;;;;;;10.67;10.67;;;;;24.32;35.69;101316.41;5018966;28;45364;-69
2022/08/12 06:13:44;;;;;;;;;13.33;12.00;;;;;24.39;35.67;101318.34;5015788;28;46384;-69
2022/08/12 06:16:13;;;;;;;;;10.00;10.00;;;;;24.45;35.54;101312.28;5012274;28;46098;-69
2022/08/12 06:18:39;;;;;;;;;11.00;10.00;;;;;24.51;35.02;101315.38;5018680;28;45379;-69
2022/08/12 06:21:06;;;;;;;;;11.00;10.00;;;;;24.56;35.30;101315.78;5019375;28;46648;-69
2022/08/12 06:23:31;;;;;;;;;13.00;11.00;;;;;24.61;35.20;101310.72;5016483;28;47038;-69
2022/08/12 06:25:57;;;;;;;;;8.00;8.00;;;;;24.67;34.49;101314.72;5014461;28;69308;-69
2022/08/12 06:28:24;;;;;;;;;9.00;9.00;;;;;24.70;34.22;101315.25;5015530;28;45411;-70
2022/08/12 06:31:17;;;;;;;;;9.33;8.33;;;;;24.78;34.37;101317.19;5014961;28;45467;-69
2022/08/12 06:33:47;;;;;;;;;13.67;13.67;;;;;24.83;34.01;101323.00;5015314;28;45418;-70
2022/08/12 06:36:15;;;;;;;;;12.67;10.67;;;;;24.93;34.19;101307.44;5019008;28;45266;-70
2022/08/12 06:38:41;;;;;;;;;13.00;13.00;;;;;25.09;34.02;101309.41;5017531;28;45532;-70
2022/08/12 06:43:52;;;;;;;;;10.00;10.00;;;;;25.36;32.61;101317.63;5016585;28;45782;-70
2022/08/12 06:46:21;;;;;;;;;9.00;8.67;;;;;25.43;31.90;101321.38;5008950;28;45340;-70
2022/08/12 06:48:48;;;;;;;;;13.33;11.00;;;;;25.54;32.54;101309.34;5016192;28;45270;-70
2022/08/12 06:51:14;;;;;;;;;11.33;11.00;;;;;25.73;32.45;101317.25;5013189;28;45418;-70
2022/08/12 06:53:42;;;;;;;;;8.67;8.67;;;;;25.90;32.08;101325.50;5011039;28;45312;-70
2022/08/12 06:56:08;;;;;;;;;10.67;10.67;;;;;26.06;32.04;101314.69;5016198;28;45424;-70
2022/08/12 06:58:38;;;;;;;;;9.33;9.33;;;;;26.29;31.51;101315.94;5018330;28;45507;-70
2022/08/12 07:01:04;;;;;;;;;10.67;9.33;;;;;26.49;30.94;101317.34;5020204;28;45776;-69
2022/08/12 07:03:30;;;;;;;;;8.67;8.67;;;;;26.71;30.77;101310.34;5013341;28;45354;-70
2022/08/12 07:06:01;;;;;;;;;8.67;8.67;;;;;26.87;30.94;101312.25;5019087;28;45305;-69
2022/08/12 07:08:28;;;;;;;;;8.33;8.33;;;;;27.07;30.77;101318.16;5016282;28;45399;-69
2022/08/12 07:10:57;;;;;;;;;4.67;3.00;;;;;27.31;30.10;101321.03;5025186;28;45396;-69
2022/08/12 07:13:25;;;;;;;;;8.67;8.33;;;;;27.49;29.92;101318.09;5019050;28;47115;-69
2022/08/12 07:15:55;;;;;;;;;9.00;9.00;;;;;27.75;29.73;101314.25;5014167;28;45380;-69
2022/08/12 07:18:22;;;;;;;;;9.33;8.67;;;;;28.09;29.61;101303.00;5018806;28;45463;-69
2022/08/12 07:20:48;;;;;;;;;8.00;8.00;;;;;28.46;29.00;101297.78;5014177;28;45769;-70
2022/08/12 07:23:15;;;;;;;;;8.00;8.00;;;;;28.69;27.98;101293.19;5014632;28;45475;-69
2022/08/12 07:25:41;;;;;;;;;7.00;7.00;;;;;28.96;27.41;101292.75;5014383;28;45478;-70
2022/08/12 07:28:26;;;;;;;;;7.67;7.00;;;;;29.34;27.32;101298.19;5010273;28;45467;-69
2022/08/12 07:30:53;;;;;;;;;11.33;10.00;;;;;29.63;25.83;101300.03;5004751;28;45325;-70
2022/08/12 07:33:21;;;;;;;;;9.00;9.00;;;;;29.83;25.50;101288.50;5014523;28;46410;-69
2022/08/12 07:35:47;;;;;;;;;6.67;5.33;;;;;30.08;26.45;101291.75;5015807;28;45420;-70
2022/08/12 07:38:32;;;;;;;;;7.67;7.67;;;;;30.50;25.75;101289.25;5018964;28;45691;-69
2022/08/12 07:41:01;;;;;;;;;7.00;7.00;;;;;30.89;25.43;101282.41;5005628;28;45467;-69
2022/08/12 07:43:26;;;;;;;;;6.67;5.67;;;;;31.26;23.87;101293.22;5017248;28;46907;-70
2022/08/12 07:45:53;;;;;;;;;7.33;7.33;;;;;31.67;24.04;101290.50;5009175;28;45526;-70
2022/08/12 07:48:19;;;;;;;;;7.67;7.00;;;;;32.05;23.45;101280.91;5018499;28;45312;-70
2022/08/12 07:50:44;;;;;;;;;6.00;6.00;;;;;32.36;22.06;101286.91;5011435;28;45482;-62
2022/08/12 07:53:10;;;;;;;;;8.67;8.67;;;;;32.55;22.96;101291.56;5003791;28;45391;-70
2022/08/12 07:55:35;;;;;;;;;6.67;5.33;;;;;32.86;22.92;101284.59;5005216;28;45406;-70
2022/08/12 07:58:01;;;;;;;;;9.33;9.33;;;;;32.97;21.12;101289.47;5012679;28;45523;-70
2022/08/12 08:00:29;;;;;;;;;7.67;6.67;;;;;32.86;21.57;101283.78;5014222;28;46407;-69
2022/08/12 08:02:54;;;;;;;;;11.67;11.67;;;;;32.86;20.81;101286.53;5006956;28;46064;-70
2022/08/12 08:05:22;;;;;;;;;6.00;6.00;;;;;32.86;22.04;101284.59;5010114;28;45473;-69
2022/08/12 08:07:47;;;;;;;;;6.33;6.33;;;;;32.97;21.98;101289.47;5005810;28;45433;-70
2022/08/12 08:10:13;;;;;;;;;7.67;7.67;;;;;33.02;22.33;101291.56;5011779;28;55488;-70
2022/08/12 08:13:03;;;;;;;;;5.00;5.00;;;;;33.01;20.34;101294.53;5010965;28;45444;-69
2022/08/12 08:15:29;;;;;;;;;7.33;7.33;;;;;32.78;21.50;101293.94;5007430;28;45568;-69
2022/08/12 08:18:02;;;;;;;;;9.00;8.00;;;;;32.61;21.51;101293.47;5014734;28;45486;-69
2022/08/12 08:20:32;;;;;;;;;9.33;8.67;;;;;32.45;21.20;101294.75;5011595;28;45485;-69
2022/08/12 08:23:00;;;;;;;;;6.33;5.00;;;;;32.60;21.49;101299.19;5004625;28;46306;-70
2022/08/12 08:25:30;;;;;;;;;6.67;6.67;;;;;32.77;21.19;101302.41;5010925;28;45352;-69
2022/08/12 08:28:03;;;;;;;;;6.33;6.33;;;;;32.78;21.31;101296.69;5014898;28;45437;-70
2022/08/12 08:30:29;;;;;;;;;4.00;4.00;;;;;32.89;20.56;101297.94;5006664;28;45345;-70
2022/08/12 08:32:55;;;;;;;;;7.33;7.33;;;;;33.17;21.54;101296.84;5012370;28;45562;-70
2022/08/12 08:35:22;;;;;;;;;10.00;10.00;;;;;33.46;19.62;101306.53;5020143;28;45593;-70
2022/08/12 08:37:48;;;;;;;;;4.00;4.00;;;;;33.42;20.01;101296.19;5013014;28;45296;-69
2022/08/12 08:42:57;;;;;;;;;4.33;4.33;;;;;33.81;19.58;101288.84;5007107;28;45786;-70
2022/08/12 08:45:22;;;;;;;;;9.00;8.00;;;;;34.08;19.84;101296.94;5007914;28;67924;-69
2022/08/12 08:47:48;;;;;;;;;6.00;5.33;;;;;34.13;19.61;101299.88;5012221;28;45404;-69
2022/08/12 08:50:14;;;;;;;;;6.67;5.33;;;;;34.37;19.46;101291.94;5008761;28;45463;-69
2022/08/12 08:52:41;;;;;;;;;5.67;5.67;;;;;34.69;18.96;101289.09;5012810;28;46100;-69
2022/08/12 08:55:12;;;;;;;;;7.67;7.00;;;;;34.81;18.04;101294.72;5006641;28;45623;-69
2022/08/12 08:57:39;;;;;;;;;5.00;4.33;;;;;34.89;18.86;101302.78;5014715;28;45689;-69
2022/08/12 09:00:05;;;;;;;;;4.00;3.00;;;;;34.54;17.20;101294.97;5015951;28;45662;-69
2022/08/12 09:02:30;;;;;;;;;5.67;4.67;;;;;34.46;17.46;101299.69;5009536;28;46246;-70
2022/08/12 09:04:56;;;;;;;;;2.67;2.00;;;;;34.55;18.03;101291.13;5014905;28;69120;-69
2022/08/12 09:07:21;;;;;;;;;4.67;4.67;;;;;34.54;17.61;101292.22;5016731;28;65281;-69
2022/08/12 09:09:46;;;;;;;;;7.00;4.00;;;;;34.60;17.74;101289.41;5014952;28;70440;-69
2022/08/12 09:14:57;;;;;;;;;5.33;5.33;;;;;35.14;17.98;101291.69;5017042;28;45585;-69
2022/08/12 09:17:22;;;;;;;;;4.33;4.33;;;;;35.47;17.72;101295.16;5007318;28;45782;-68
2022/08/12 09:19:48;;;;;;;;;5.33;5.33;;;;;35.82;16.62;101289.81;5014310;28;45513;-69
2022/08/12 09:22:14;;;;;;;;;4.00;4.00;;;;;35.96;16.98;101292.41;5013669;28;45533;-69
2022/08/12 09:24:39;;;;;;;;;4.00;4.00;;;;;36.03;17.16;101282.94;5013370;28;72904;-69
2022/08/12 09:27:05;;;;;;;;;5.00;5.00;;;;;36.26;16.38;101282.16;5009167;28;45909;-69
2022/08/12 09:29:32;;;;;;;;;4.67;4.67;;;;;36.51;16.91;101286.69;5006387;28;45800;-69
2022/08/12 09:31:58;;;;;;;;;5.00;5.00;;;;;36.72;16.51;101278.88;5016754;28;45519;-70
2022/08/12 09:34:26;;;;;;;;;5.33;5.33;;;;;36.98;16.69;101277.59;5012637;28;45178;-68
2022/08/12 09:36:53;;;;;;;;;5.00;4.67;;;;;37.30;16.09;101263.31;5009203;28;45553;-68
2022/08/12 09:39:18;;;;;;;;;4.67;3.00;;;;;37.48;16.26;101273.41;5011430;28;46246;-69
2022/08/12 09:41:44;;;;;;;;;2.67;2.67;;;;;37.48;15.79;101262.31;5015363;28;70872;-69
2022/08/12 09:46:55;;;;;;;;;5.00;5.00;;;;;37.43;15.20;101264.16;5009431;28;46906;-69
2022/08/12 09:49:21;;;;;;;;;5.67;5.67;;;;;37.65;15.53;101270.69;5017405;28;45498;-68
2022/08/12 09:51:47;;;;;;;;;5.67;5.67;;;;;37.85;16.27;101270.31;5015869;28;46887;-69
2022/08/12 09:54:15;;;;;;;;;4.00;4.00;;;;;37.99;15.16;101265.28;5012767;28;45557;-68
2022/08/12 09:56:44;;;;;;;;;5.00;5.00;;;;;38.26;15.90;101273.00;5015906;28;45552;-70
2022/08/12 09:59:09;;;;;;;;;4.33;4.33;;;;;38.27;15.28;101258.03;5011651;28;45561;-68
2022/08/12 10:01:38;;;;;;;;;4.33;4.33;;;;;38.29;14.09;101258.63;5008508;28;47011;-69
2022/08/12 10:04:08;;;;;;;;;4.67;4.67;;;;;38.21;15.56;101259.84;5015985;28;45332;-69
2022/08/12 10:06:33;;;;;;;;;6.00;6.00;;;;;38.43;14.79;101261.06;5012673;28;45399;-69
2022/08/12 10:08:59;;;;;;;;;4.00;4.00;;;;;38.61;15.33;101254.41;5009644;28;45385;-68
2022/08/12 10:14:08;;;;;;;;;5.00;5.00;;;;;39.09;15.55;101250.13;5012828;28;45490;-69
2022/08/12 10:16:42;;;;;;;;;6.33;3.67;;;;;39.10;13.95;101245.38;5008885;28;68580;-69
2022/08/12 10:19:08;;;;;;;;;3.00;3.00;;;;;39.02;14.43;101238.31;5012411;28;45713;-69
2022/08/12 10:21:36;;;;;;;;;3.00;3.00;;;;;39.10;13.69;101243.47;5012919;28;46024;-69
2022/08/12 10:24:03;;;;;;;;;8.67;8.00;;;;;38.97;12.77;101236.34;5011954;28;45539;-68
2022/08/12 10:31:58;;;;;;;;;4.00;4.00;;;;;38.51;13.62;101233.72;5016868;28;45821;-68
2022/08/12 10:34:24;;;;;;;;;7.33;5.67;;;;;38.14;13.60;101230.56;5011926;28;68011;-68
2022/08/12 10:36:54;;;;;;;;;7.00;7.00;;;;;38.09;13.26;101233.25;5005958;28;45359;-69
2022/08/12 10:39:20;;;;;;;;;4.33;4.33;;;;;38.19;13.99;101219.56;5003653;28;45525;-68
2022/08/12 10:44:30;;;;;;;;;3.00;3.00;;;;;38.52;14.15;101235.38;5008977;28;45309;-68
2022/08/12 10:46:56;;;;;;;;;3.33;3.33;;;;;38.66;14.43;101212.81;5012022;28;45585;-70
2022/08/12 10:49:26;;;;;;;;;5.00;4.00;;;;;38.86;14.31;101223.38;5013298;28;45550;-68
2022/08/12 10:51:53;;;;;;;;;4.00;4.00;;;;;39.06;13.63;101211.69;5016200;28;47179;-68
2022/08/12 10:54:19;;;;;;;;;12.67;12.67;;;;;39.10;12.69;101206.47;5008596;28;45485;-68
2022/08/12 10:56:47;;;;;;;;;2.00;2.00;;;;;39.03;13.09;101198.31;5013848;28;45483;-68
2022/08/12 10:59:14;;;;;;;;;4.00;2.67;;;;;38.97;14.51;101202.97;5014346;28;46784;-70
2022/08/12 11:01:41;;;;;;;;;5.00;4.00;;;;;38.98;13.76;101201.88;5003087;28;46200;-63
2022/08/12 11:04:12;;;;;;;;;5.33;4.67;;;;;38.96;13.38;101192.13;5007006;28;45524;-62
2022/08/12 11:06:47;;;;;;;;;2.00;2.00;;;;;38.90;13.17;101198.72;5015236;28;45654;-64
2022/08/12 11:09:17;;;;;;;;;2.67;2.67;;;;;38.91;13.54;101201.22;5014705;28;45325;-64
2022/08/12 11:11:43;;;;;;;;;8.00;6.00;;;;;38.89;13.40;101192.28;5005442;28;46078;-63
2022/08/12 11:14:09;;;;;;;;;3.67;3.67;;;;;38.84;13.23;101184.75;5003326;28;45483;-64
2022/08/12 11:16:34;;;;;;;;;3.67;2.67;;;;;38.85;13.66;101175.31;5008085;28;69285;-64
2022/08/12 11:18:59;;;;;;;;;4.00;4.00;;;;;38.79;13.18;101181.91;5012083;28;45535;-64
2022/08/12 11:21:25;;;;;;;;;2.33;2.33;;;;;38.80;13.91;101168.84;5007000;28;75531;-64
2022/08/12 11:23:50;;;;;;;;;5.00;3.33;;;;;38.84;13.39;101176.41;5017423;28;48673;-65
2022/08/12 11:26:15;;;;;;;;;5.33;3.33;;;;;38.97;14.15;101174.31;5012810;28;68881;-64
2022/08/12 11:28:41;;;;;;;;;5.67;5.00;;;;;39.20;13.71;101167.69;5007711;28;45401;-64
2022/08/12 11:31:07;;;;;;;;;1.00;1.00;;;;;39.30;13.85;101156.69;5014978;28;49508;-64
2022/08/12 11:33:33;;;;;;;;;3.00;3.00;;;;;39.45;13.77;101156.03;5015425;28;45582;-64
2022/08/12 11:36:07;;;;;;;;;3.33;3.33;;;;;39.56;13.58;101153.31;5017733;28;45257;-64
2022/08/12 11:38:33;;;;;;;;;1.33;1.33;;;;;39.54;13.03;101156.38;5017254;28;45466;-64
2022/08/12 11:40:59;;;;;;;;;3.00;3.00;;;;;39.46;12.86;101149.34;5008295;28;46292;-64
2022/08/12 11:43:25;;;;;;;;;4.67;3.67;;;;;39.51;12.85;101149.38;5015030;28;45292;-64
2022/08/12 11:45:50;;;;;;;;;3.00;3.00;;;;;39.57;12.99;101146.66;5016761;28;46001;-64
2022/08/12 11:48:15;;;;;;;;;4.00;4.00;;;;;39.48;13.13;101141.59;5016272;28;62727;-64
2022/08/12 11:50:44;;;;;;;;;2.00;2.00;;;;;39.21;12.66;101147.13;5015745;28;73687;-64
2022/08/12 11:53:09;;;;;;;;;4.00;2.00;;;;;39.07;12.95;101146.66;5004341;28;45408;-64
2022/08/12 11:55:35;;;;;;;;;2.67;2.00;;;;;39.01;13.18;101150.50;5012253;28;68097;-64
2022/08/12 11:58:00;;;;;;;;;4.00;4.00;;;;;38.93;12.83;101146.25;5016310;28;65764;-64
2022/08/12 12:00:25;;;;;;;;;3.00;3.00;;;;;38.87;13.50;101136.97;5008307;28;71535;-64
2022/08/12 12:02:51;;;;;;;;;3.00;3.00;;;;;38.91;13.13;101142.88;5016974;28;45379;-64
2022/08/12 12:05:16;;;;;;;;;3.00;3.00;;;;;38.94;13.41;101136.78;5015272;28;55528;-64
2022/08/12 12:07:43;;;;;;;;;1.00;0.67;;;;;38.96;13.11;101129.03;5010191;28;45427;-64
2022/08/12 12:10:09;;;;;;;;;4.00;4.00;;;;;38.91;13.36;101134.53;5011925;28;45457;-65
2022/08/12 12:12:35;;;;;;;;;5.00;5.00;;;;;38.86;13.32;101126.13;5003065;28;45241;-64
2022/08/12 12:15:00;;;;;;;;;4.67;3.00;;;;;38.82;13.45;101128.56;5007407;28;69032;-64
2022/08/12 12:17:26;;;;;;;;;2.67;2.67;;;;;38.83;13.31;101121.91;5012937;28;45345;-64
2022/08/12 12:19:52;;;;;;;;;2.67;2.67;;;;;38.92;13.38;101124.22;5006666;28;46561;-64
2022/08/12 12:22:18;;;;;;;;;2.67;2.67;;;;;38.99;13.50;101116.56;5004146;28;45760;-64
2022/08/12 12:24:46;;;;;;;;;4.00;4.00;;;;;38.98;13.04;101112.94;5010348;28;45386;-64
2022/08/12 12:27:11;;;;;;;;;3.33;3.33;;;;;38.98;13.21;101118.50;5017108;28;45522;-64
2022/08/12 12:29:37;;;;;;;;;3.00;3.00;;;;;38.95;12.74;101124.56;5011183;28;46112;-64
2022/08/12 12:32:02;;;;;;;;;1.00;1.00;;;;;38.84;12.73;101114.41;5005819;28;71420;-64
2022/08/12 12:34:27;;;;;;;;;2.00;2.00;;;;;38.76;13.01;101114.88;5000222;28;45813;-64
2022/08/12 12:36:53;;;;;;;;;5.00;3.33;;;;;38.69;13.29;101115.88;5005572;28;63874;-64
2022/08/12 12:39:18;;;;;;;;;2.00;2.00;;;;;38.72;13.41;101101.50;5004896;28;66811;-64
2022/08/12 12:41:43;;;;;;;;;3.00;3.00;;;;;38.75;13.01;101110.41;5010951;28;45607;-64
2022/08/12 12:44:09;;;;;;;;;4.67;4.67;;;;;38.74;12.97;101115.13;5016195;28;63789;-64
2022/08/12 12:46:34;;;;;;;;;3.00;3.00;;;;;38.69;12.86;101113.09;5005969;28;45436;-64
2022/08/12 12:48:59;;;;;;;;;5.00;5.00;;;;;38.59;13.00;101104.63;5000760;28;71388;-64
2022/08/12 12:51:25;;;;;;;;;3.00;3.00;;;;;38.55;12.91;101096.00;5011992;28;67751;-65
2022/08/12 12:53:50;;;;;;;;;3.00;3.00;;;;;38.51;13.24;101094.81;5007755;28;45528;-64
2022/08/12 12:56:19;;;;;;;;;3.00;3.00;;;;;38.51;13.49;101082.84;5011247;28;45625;-64
2022/08/12 12:58:48;;;;;;;;;3.00;3.00;;;;;38.53;13.25;101087.06;5013706;28;46210;-64
2022/08/12 13:01:15;;;;;;;;;3.00;3.00;;;;;38.57;13.10;101079.06;5011993;28;45392;-64
2022/08/12 13:03:40;;;;;;;;;4.00;4.00;;;;;38.63;13.21;101078.03;5008077;28;45547;-65
2022/08/12 13:06:07;;;;;;;;;4.00;4.00;;;;;38.66;13.37;101085.00;5005671;28;45375;-65
2022/08/12 13:08:33;;;;;;;;;3.33;3.33;;;;;38.60;13.09;101086.03;5013986;28;46241;-64
2022/08/12 13:11:02;;;;;;;;;3.33;3.33;;;;;38.39;13.27;101083.81;5008108;28;45497;-64
2022/08/12 13:13:28;;;;;;;;;1.67;1.67;;;;;38.18;13.00;101082.66;5009565;28;46895;-64
2022/08/12 13:15:55;;;;;;;;;3.00;3.00;;;;;38.11;13.50;101072.81;5012094;28;45497;-65
2022/08/12 13:18:21;;;;;;;;;4.67;4.67;;;;;38.05;13.51;101066.38;5002461;28;46514;-65
2022/08/12 13:20:47;;;;;;;;;3.00;3.00;;;;;37.93;13.49;101062.84;5010683;28;45490;-64
2022/08/12 13:23:16;;;;;;;;;2.00;2.00;;;;;37.86;13.97;101065.78;5009815;28;45468;-65
2022/08/12 13:25:42;;;;;;;;;4.00;4.00;;;;;37.85;13.83;101070.50;5010876;28;45538;-65
2022/08/12 13:28:14;;;;;;;;;2.67;2.67;;;;;37.82;13.58;101057.16;5016976;28;46496;-65
2022/08/12 13:30:40;;;;;;;;;4.33;4.33;;;;;37.80;13.93;101064.03;5007739;28;46631;-65
2022/08/12 13:33:05;;;;;;;;;4.67;4.00;;;;;37.71;13.72;101060.81;5008043;28;68140;-65
2022/08/12 13:35:34;;;;;;;;;4.00;4.00;;;;;37.65;13.60;101059.88;5004144;28;66330;-64
2022/08/12 13:38:00;;;;;;;;;3.00;3.00;;;;;37.62;13.96;101065.09;5011716;28;46094;-65
2022/08/12 13:40:27;;;;;;;;;3.00;3.00;;;;;37.55;13.68;101048.63;5012634;28;45319;-64
2022/08/12 13:42:57;;;;;;;;;2.67;2.67;;;;;37.48;14.17;101054.31;5004726;28;45380;-65
2022/08/12 13:45:26;;;;;;;;;3.33;3.33;;;;;37.44;14.00;101053.16;5013049;28;45403;-67
2022/08/12 13:48:03;;;;;;;;;5.33;5.33;;;;;37.33;14.16;101066.00;5013930;28;45470;-67
2022/08/12 13:50:38;;;;;;;;;2.67;2.67;;;;;37.20;13.88;101057.97;5008052;28;45749;-66
2022/08/12 13:53:09;;;;;;;;;3.00;2.00;;;;;37.12;14.10;101052.81;5013404;28;47411;-66
2022/08/12 13:55:36;;;;;;;;;3.00;3.00;;;;;37.06;13.86;101043.56;5018482;28;45253;-67
2022/08/12 13:58:04;;;;;;;;;4.67;4.67;;;;;37.03;14.10;101050.44;5019313;28;45570;-67
2022/08/12 14:00:31;;;;;;;;;2.67;2.67;;;;;37.03;14.06;101047.69;5019383;28;45561;-67
2022/08/12 14:02:56;;;;;;;;;2.33;2.33;;;;;37.02;14.25;101040.44;5016626;28;45428;-67
2022/08/12 14:05:22;;;;;;;;;5.33;5.33;;;;;37.01;13.86;101043.47;5009291;28;67323;-67
2022/08/12 14:07:55;;;;;;;;;3.00;3.00;;;;;36.97;14.32;101036.75;5032463;28;45629;-67
2022/08/12 14:10:40;;;;;;;;;3.00;3.00;;;;;36.94;14.63;101042.78;5012533;28;45439;-67
2022/08/12 14:13:07;;;;;;;;;2.00;2.00;;;;;36.86;14.11;101046.81;5020688;28;45344;-67
2022/08/12 14:15:33;;;;;;;;;3.00;3.00;;;;;36.75;14.27;101045.69;5020165;28;45639;-67
2022/08/12 14:18:10;;;;;;;;;2.00;2.00;;;;;36.64;14.19;101039.13;5014622;28;46188;-68
2022/08/12 14:20:36;;;;;;;;;2.33;2.33;;;;;36.57;14.62;101041.16;5019235;28;45430;-67
2022/08/12 14:23:02;;;;;;;;;7.00;7.00;;;;;36.53;14.80;101042.75;5018982;28;45332;-67
2022/08/12 14:25:27;;;;;;;;;3.00;3.00;;;;;36.43;14.48;101024.00;5018177;28;45834;-68
2022/08/12 14:27:54;;;;;;;;;2.67;2.67;;;;;36.37;14.39;101028.56;5015129;28;45991;-67
2022/08/12 14:30:22;;;;;;;;;4.00;4.00;;;;;36.31;14.57;101031.44;5014442;28;45469;-66
2022/08/12 14:32:47;;;;;;;;;3.00;3.00;;;;;36.17;14.88;101025.34;5014024;28;45647;-67
2022/08/12 14:35:13;;;;;;;;;4.00;4.00;;;;;36.04;14.37;101020.91;5010043;28;69405;-67
2022/08/12 14:37:39;;;;;;;;;4.00;4.00;;;;;35.96;14.67;101021.25;5015191;28;73827;-67
2022/08/12 14:40:05;;;;;;;;;4.33;3.33;;;;;35.88;15.14;101019.69;5013859;28;45306;-67
2022/08/12 14:42:30;;;;;;;;;4.00;4.00;;;;;35.83;14.73;101017.63;5004078;28;45335;-67
2022/08/12 14:44:56;;;;;;;;;2.67;2.67;;;;;35.82;15.11;101017.88;5014384;28;66122;-67
2022/08/12 14:47:22;;;;;;;;;8.00;5.00;;;;;35.82;14.84;101010.41;5012444;28;45531;-67
2022/08/12 14:49:47;;;;;;;;;3.33;3.33;;;;;35.78;15.18;101006.44;5010002;28;45341;-67
2022/08/12 14:52:13;;;;;;;;;4.00;4.00;;;;;35.71;15.03;101009.34;5008797;28;64120;-67
2022/08/12 14:54:38;;;;;;;;;3.00;3.00;;;;;35.69;15.10;101003.19;5010111;28;64603;-67
2022/08/12 14:57:05;;;;;;;;;5.00;5.00;;;;;35.71;15.19;101011.25;5009234;28;74861;-67
2022/08/12 15:02:19;;;;;;;;;4.00;3.00;;;;;35.68;14.67;100995.97;5012785;28;45344;-67
2022/08/12 15:04:45;;;;;;;;;3.00;3.00;;;;;35.67;14.73;101010.91;5013366;28;45356;-66
2022/08/12 15:07:12;;;;;;;;;3.67;3.67;;;;;35.57;14.37;101005.13;5016456;28;46265;-66
2022/08/12 15:09:38;;;;;;;;;6.67;6.67;;;;;35.48;15.07;101001.84;5016730;28;45368;-65
2022/08/12 15:12:04;;;;;;;;;8.67;8.67;;;;;35.48;14.84;101001.03;5013620;28;45248;-62
2022/08/12 15:14:30;;;;;;;;;4.00;4.00;;;;;35.47;14.96;100991.03;5013820;28;45374;-63
2022/08/12 15:16:55;;;;;;;;;3.33;3.33;;;;;35.47;15.23;101002.09;5011829;28;46205;-63
2022/08/12 15:19:21;;;;;;;;;2.33;2.33;;;;;35.45;14.98;101010.63;5009021;28;45513;-63
2022/08/12 15:21:46;;;;;;;;;3.67;3.67;;;;;35.39;15.20;100995.81;5004616;28;65754;-63
2022/08/12 15:24:11;;;;;;;;;3.00;3.00;;;;;35.37;14.80;100992.47;5000043;28;45461;-63
2022/08/12 15:26:37;;;;;;;;;2.33;2.33;;;;;35.37;15.22;100983.31;5007862;28;67883;-63
2022/08/12 15:29:04;;;;;;;;;3.33;3.33;;;;;35.35;14.76;100989.09;5014663;28;48090;-63
2022/08/12 15:31:30;;;;;;;;;4.00;4.00;;;;;35.36;15.03;100987.16;5008645;28;45362;-63
2022/08/12 15:33:55;;;;;;;;;2.00;2.00;;;;;35.33;14.90;100996.75;5012500;28;45550;-63
2022/08/12 15:36:21;;;;;;;;;3.67;3.67;;;;;35.33;14.96;100990.38;5010914;28;69093;-63
2022/08/12 15:38:47;;;;;;;;;3.67;2.67;;;;;35.34;14.54;100992.06;5011831;28;45470;-63
2022/08/12 15:41:13;;;;;;;;;4.00;4.00;;;;;35.33;15.15;100990.38;5008466;28;45398;-63
2022/08/12 15:43:38;;;;;;;;;8.00;6.00;;;;;35.32;15.28;100980.41;5015290;28;45439;-63
2022/08/12 15:46:05;;;;;;;;;3.00;3.00;;;;;35.33;15.11;100985.72;5005346;28;46109;-63
2022/08/12 15:48:33;;;;;;;;;3.67;3.67;;;;;35.30;14.59;100977.03;5009845;28;45491;-63
2022/08/12 15:50:59;;;;;;;;;3.33;3.00;;;;;35.28;15.05;100974.53;5012728;28;45273;-63
2022/08/12 15:56:10;;;;;;;;;2.00;1.00;;;;;35.25;14.96;100981.38;5011617;28;45706;-63
2022/08/12 15:58:40;;;;;;;;;3.00;3.00;;;;;35.21;15.20;100971.84;5012339;28;45624;-63
2022/08/12 16:01:10;;;;;;;;;5.00;3.67;;;;;35.17;15.22;100964.28;5007842;28;46858;-63
2022/08/12 16:03:35;;;;;;;;;3.00;3.00;;;;;35.13;14.87;100958.38;5009639;28;45383;-63
2022/08/12 16:06:00;;;;;;;;;2.33;2.33;;;;;35.11;14.69;100960.56;5010442;28;71120;-63
2022/08/12 16:08:28;;;;;;;;;3.00;3.00;;;;;35.10;14.99;100972.69;5010253;28;57135;-63
2022/08/12 16:10:55;;;;;;;;;3.00;3.00;;;;;35.08;15.03;100956.34;5017931;28;45617;-63
2022/08/12 16:13:21;;;;;;;;;4.00;4.00;;;;;35.09;15.31;100955.22;5018571;28;45474;-63
2022/08/12 16:15:46;;;;;;;;;2.00;2.00;;;;;35.09;15.37;100955.22;5009741;28;46898;-63
2022/08/12 16:18:13;;;;;;;;;2.00;2.00;;;;;35.11;14.79;100950.31;5013507;28;45396;-63